Time;durP1;ratioP1;P1;durP2;ratioP2;P2;SDS_P1;SDS_P2;PMS_P1;PMS_P2;Temp;Humidity;BMP_temperature;BMP_pressure;BME280_temperature;BME280_humidity;BME280_pressure;Samples;Min_cycle;Max_cycle;Signal;HPM_P1;HPM_P2
2022/11/05 00:10:06;;;;;;;8.20;4.75;;;;;;;-145.48;100.00;64539.38;6051432;29;20608;-92
2022/11/05 00:16:48;;;;;;;12.15;4.97;;;;;;;-145.48;100.00;64539.38;6040717;29;20475;-92
2022/11/05 00:19:49;;;;;;;10.23;4.97;;;;;;;-145.48;100.00;64539.38;6043861;29;20448;-92
2022/11/05 00:26:19;;;;;;;12.68;5.57;;;;;;;-145.48;100.00;64539.38;6042888;29;20108;-92
2022/11/05 00:29:21;;;;;;;9.70;4.57;;;;;;;-145.48;100.00;64539.38;6043695;29;20049;-92
2022/11/05 00:32:23;;;;;;;8.88;4.28;;;;;;;-145.48;100.00;64539.38;6052047;29;20056;-92
2022/11/05 00:35:24;;;;;;;9.43;4.32;;;;;;;-145.48;100.00;64539.38;6031247;29;20044;-91
2022/11/05 00:38:28;;;;;;;11.32;4.25;;;;;;;-145.48;100.00;64539.38;6043726;29;20045;-92
2022/11/05 00:41:30;;;;;;;9.95;4.40;;;;;;;-145.48;100.00;64539.38;6035332;29;20075;-92
2022/11/05 00:51:12;;;;;;;9.07;3.77;;;;;;;-145.48;100.00;64539.38;6042766;29;20570;-92
2022/11/05 00:54:14;;;;;;;8.52;3.25;;;;;;;-145.48;100.00;64539.38;6043538;29;20040;-92
2022/11/05 00:57:15;;;;;;;11.93;4.35;;;;;;;-145.48;100.00;64539.38;6023223;29;20080;-91
2022/11/05 01:00:17;;;;;;;13.93;5.25;;;;;;;-145.48;100.00;64539.38;6036871;29;20113;-92
2022/11/05 01:03:26;;;;;;;12.85;3.72;;;;;;;-145.48;100.00;64539.38;6034690;29;20440;-92
2022/11/05 01:06:27;;;;;;;11.60;4.05;;;;;;;-145.48;100.00;64539.38;6033727;29;20056;-92
2022/11/05 01:09:29;;;;;;;9.63;3.83;;;;;;;-145.48;100.00;64539.38;6042839;29;20411;-91
2022/11/05 01:12:31;;;;;;;8.63;3.33;;;;;;;-145.48;100.00;64539.38;6047666;29;20440;-91
2022/11/05 01:15:34;;;;;;;8.18;3.45;;;;;;;-145.48;100.00;64539.38;6054339;29;20049;-91
2022/11/05 01:18:37;;;;;;;8.18;3.38;;;;;;;-145.48;100.00;64539.38;6036527;29;20577;-92
2022/11/05 01:21:39;;;;;;;9.32;4.07;;;;;;;-145.48;100.00;64539.38;6043734;29;20067;-91
2022/11/05 01:24:41;;;;;;;8.43;3.35;;;;;;;-145.48;100.00;64539.38;6053525;29;20056;-92
2022/11/05 01:27:43;;;;;;;11.15;3.53;;;;;;;-145.48;100.00;64539.38;6056731;29;20048;-92
2022/11/05 01:30:45;;;;;;;6.68;3.35;;;;;;;-145.48;100.00;64539.38;6048076;29;20047;-92
2022/11/05 01:33:47;;;;;;;10.45;3.33;;;;;;;-145.48;100.00;64539.38;6059500;29;20052;-92
2022/11/05 01:36:49;;;;;;;7.80;3.17;;;;;;;-145.48;100.00;64539.38;6035868;29;20048;-92
2022/11/05 01:39:50;;;;;;;8.73;2.92;;;;;;;-145.48;100.00;64539.38;6041740;29;20037;-91
2022/11/05 01:42:52;;;;;;;9.68;3.25;;;;;;;-145.48;100.00;64539.38;6029064;29;20760;-91
2022/11/05 01:45:57;;;;;;;8.30;2.88;;;;;;;-145.48;100.00;64539.38;6023835;29;20528;-92
2022/11/05 01:49:09;;;;;;;10.05;3.30;;;;;;;-145.48;100.00;64539.38;6036134;29;20042;-92
2022/11/05 01:52:11;;;;;;;9.68;3.00;;;;;;;-145.48;100.00;64539.38;6025026;29;20054;-91
2022/11/05 01:55:18;;;;;;;10.20;3.25;;;;;;;-145.48;100.00;64539.38;6049108;29;20128;-92
2022/11/05 01:58:22;;;;;;;11.02;3.08;;;;;;;-145.48;100.00;64539.38;6043547;29;20056;-91
2022/11/05 02:01:24;;;;;;;5.93;2.10;;;;;;;-145.48;100.00;64539.38;6035510;29;20484;-91
2022/11/05 02:04:31;;;;;;;11.52;3.00;;;;;;;-145.48;100.00;64539.38;6040053;29;20580;-92
2022/11/05 02:07:33;;;;;;;6.63;2.83;;;;;;;-145.48;100.00;64539.38;6039164;29;20180;-92
2022/11/05 02:10:35;;;;;;;9.68;2.80;;;;;;;-145.48;100.00;64539.38;6045013;29;20181;-92
2022/11/05 02:13:36;;;;;;;7.93;2.53;;;;;;;-145.48;100.00;64539.38;6033465;29;20045;-91
2022/11/05 02:17:03;;;;;;;10.55;2.67;;;;;;;-145.48;100.00;64539.38;6036685;29;20614;-91
2022/11/05 02:20:35;;;;;;;4.97;2.08;;;;;;;-145.48;100.00;64539.38;6030796;29;20053;-92
2022/11/05 02:24:11;;;;;;;7.63;2.67;;;;;;;-145.48;100.00;64539.38;6036052;29;20752;-91
2022/11/05 02:27:19;;;;;;;7.60;2.45;;;;;;;-145.48;100.00;64539.38;6043490;29;20038;-92
2022/11/05 02:30:40;;;;;;;9.50;2.80;;;;;;;-145.48;100.00;64539.38;6038752;29;20225;-92
2022/11/05 02:34:22;;;;;;;6.72;2.20;;;;;;;-145.48;100.00;64539.38;6056029;29;20366;-92
2022/11/05 02:37:33;;;;;;;10.02;2.88;;;;;;;-145.48;100.00;64539.38;6050378;29;20049;-91
2022/11/05 02:41:12;;;;;;;10.35;2.80;;;;;;;-145.48;100.00;64539.38;6062755;29;20050;-92
2022/11/05 02:44:29;;;;;;;9.80;2.88;;;;;;;-145.48;100.00;64539.38;6059240;29;20080;-91
2022/11/05 02:47:58;;;;;;;5.32;2.30;;;;;;;-145.48;100.00;64539.38;6056060;29;20049;-91
2022/11/05 02:51:31;;;;;;;9.82;2.55;;;;;;;-145.48;100.00;64539.38;6048931;29;20060;-92
2022/11/05 02:54:44;;;;;;;5.82;2.30;;;;;;;-145.48;100.00;64539.38;6039598;29;20432;-91
2022/11/05 02:57:46;;;;;;;4.60;2.20;;;;;;;-145.48;100.00;64539.38;6035160;29;20502;-91
2022/11/05 03:00:54;;;;;;;7.68;2.65;;;;;;;-145.48;100.00;64539.38;6047463;29;20065;-92
2022/11/05 03:04:02;;;;;;;6.75;2.30;;;;;;;-145.48;100.00;64539.38;6049266;29;20049;-92
2022/11/05 03:07:21;;;;;;;5.40;2.40;;;;;;;-145.48;100.00;64539.38;6036165;29;20212;-91
2022/11/05 03:10:30;;;;;;;5.85;2.70;;;;;;;-145.48;100.00;64539.38;6047604;29;20103;-92
2022/11/05 03:13:51;;;;;;;6.05;2.20;;;;;;;-145.48;100.00;64539.38;6037333;29;20056;-91
2022/11/05 03:17:08;;;;;;;5.05;2.42;;;;;;;-145.48;100.00;64539.38;6038332;29;20487;-91
2022/11/05 03:20:38;;;;;;;7.93;2.47;;;;;;;-145.48;100.00;64539.38;6048924;29;20107;-92
2022/11/05 03:24:02;;;;;;;4.68;2.10;;;;;;;-145.48;100.00;64539.38;6043845;29;20386;-92
2022/11/05 03:27:10;;;;;;;8.35;2.83;;;;;;;-145.48;100.00;64539.38;6047997;29;20128;-91
2022/11/05 03:30:14;;;;;;;7.18;1.80;;;;;;;-145.48;100.00;64539.38;6058786;29;20069;-91
2022/11/05 03:33:22;;;;;;;5.13;1.80;;;;;;;-145.48;100.00;64539.38;6046724;29;20037;-92
2022/11/05 03:36:31;;;;;;;6.85;1.95;;;;;;;-145.48;100.00;64539.38;6056420;29;20053;-92
2022/11/05 03:39:39;;;;;;;5.97;1.95;;;;;;;-145.48;100.00;64539.38;6038198;29;20079;-91
2022/11/05 03:42:45;;;;;;;6.40;1.67;;;;;;;-145.48;100.00;64539.38;6044881;29;20045;-91
2022/11/05 03:45:54;;;;;;;9.13;2.20;;;;;;;-145.48;100.00;64539.38;6045812;29;20048;-91
2022/11/05 03:49:00;;;;;;;7.18;1.98;;;;;;;-145.48;100.00;64539.38;6048358;29;20044;-91
2022/11/05 03:52:08;;;;;;;5.18;1.77;;;;;;;-145.48;100.00;64539.38;6044930;29;20123;-92
2022/11/05 03:55:10;;;;;;;10.13;2.00;;;;;;;-145.48;100.00;64539.38;6044456;29;20049;-92
2022/11/05 03:58:12;;;;;;;6.50;1.90;;;;;;;-145.48;100.00;64539.38;6035732;29;20060;-92
2022/11/05 04:01:15;;;;;;;6.40;2.03;;;;;;;-145.48;100.00;64539.38;6056196;29;20083;-91
2022/11/05 04:04:17;;;;;;;7.55;1.95;;;;;;;-145.48;100.00;64539.38;6044713;29;20060;-91
2022/11/05 04:14:00;;;;;;;6.80;2.13;;;;;;;-145.48;100.00;64539.38;6052276;29;20052;-92
2022/11/05 04:17:08;;;;;;;9.63;2.92;;;;;;;-145.48;100.00;64539.38;6048748;29;20041;-92
2022/11/05 04:26:52;;;;;;;7.72;1.55;;;;;;;-145.48;100.00;64539.38;6062466;29;20124;-92
2022/11/05 04:33:15;;;;;;;9.17;2.10;;;;;;;-145.48;100.00;64539.38;6044964;29;20080;-91
2022/11/05 04:36:18;;;;;;;7.80;1.98;;;;;;;-145.48;100.00;64539.38;6054233;29;20040;-92
2022/11/05 04:39:20;;;;;;;4.68;1.77;;;;;;;-145.48;100.00;64539.38;6055844;29;20048;-92
2022/11/05 04:42:22;;;;;;;5.20;1.40;;;;;;;-145.48;100.00;64539.38;6046251;29;20173;-91
2022/11/05 04:45:27;;;;;;;7.20;1.70;;;;;;;-145.48;100.00;64539.38;6052605;29;20133;-92
2022/11/05 04:48:28;;;;;;;6.20;1.80;;;;;;;-145.48;100.00;64539.38;6058091;29;20049;-92
2022/11/05 04:51:30;;;;;;;6.72;1.33;;;;;;;-145.48;100.00;64539.38;6057917;29;20451;-91
2022/11/05 04:54:32;;;;;;;8.45;1.40;;;;;;;-145.48;100.00;64539.38;6048715;29;20092;-91
2022/11/05 04:57:34;;;;;;;4.38;1.48;;;;;;;-145.48;100.00;64539.38;6061833;29;20152;-92
2022/11/05 05:00:36;;;;;;;3.05;1.52;;;;;;;-145.48;100.00;64539.38;6051304;29;20569;-91
2022/11/05 05:03:38;;;;;;;7.63;1.52;;;;;;;-145.48;100.00;64539.38;6063602;29;20049;-91
2022/11/05 05:06:40;;;;;;;4.43;1.40;;;;;;;-145.48;100.00;64539.38;6064918;29;20044;-91
2022/11/05 05:09:41;;;;;;;4.47;1.15;;;;;;;-145.48;100.00;64539.38;6052349;29;20138;-91
2022/11/05 05:12:43;;;;;;;4.50;1.20;;;;;;;-145.48;100.00;64539.38;6047745;29;20088;-91
2022/11/05 05:15:45;;;;;;;2.13;1.10;;;;;;;-145.48;100.00;64539.38;6047952;29;20045;-92
2022/11/05 05:18:48;;;;;;;4.60;1.30;;;;;;;-145.48;100.00;64539.38;6051503;29;20410;-91
2022/11/05 05:21:50;;;;;;;3.60;1.50;;;;;;;-145.48;100.00;64539.38;6061237;29;20166;-91
2022/11/05 05:24:51;;;;;;;2.95;1.30;;;;;;;-145.48;100.00;64539.38;6061769;29;20423;-91
2022/11/05 05:27:56;;;;;;;4.95;1.65;;;;;;;-145.48;100.00;64539.38;6051289;29;20498;-91
2022/11/05 05:30:59;;;;;;;3.17;1.02;;;;;;;-145.48;100.00;64539.38;6041265;29;20052;-91
2022/11/05 05:34:01;;;;;;;4.57;1.20;;;;;;;-145.48;100.00;64539.38;6045371;29;20456;-91
2022/11/05 05:37:03;;;;;;;3.83;1.17;;;;;;;-145.48;100.00;64539.38;6052230;29;20311;-92
2022/11/05 05:40:05;;;;;;;4.35;1.02;;;;;;;-145.48;100.00;64539.38;6057993;29;20041;-91
2022/11/05 05:43:07;;;;;;;3.03;1.40;;;;;;;-145.48;100.00;64539.38;6051074;29;20041;-92
2022/11/05 05:46:12;;;;;;;6.43;1.45;;;;;;;-145.48;100.00;64539.38;6049396;29;20098;-91
2022/11/05 05:49:13;;;;;;;4.45;1.35;;;;;;;-145.48;100.00;64539.38;6049770;29;20479;-91
2022/11/05 05:52:15;;;;;;;5.05;1.40;;;;;;;-145.48;100.00;64539.38;6057363;29;20044;-91
2022/11/05 05:55:17;;;;;;;4.63;1.40;;;;;;;-145.48;100.00;64539.38;6049339;29;20377;-91
2022/11/05 05:58:18;;;;;;;5.28;1.33;;;;;;;-145.48;100.00;64539.38;6038689;29;20068;-92
2022/11/05 06:01:20;;;;;;;5.50;1.50;;;;;;;-145.48;100.00;64539.38;6041157;29;20079;-91
2022/11/05 06:04:22;;;;;;;5.75;1.70;;;;;;;-145.48;100.00;64539.38;6058138;29;20399;-91
2022/11/05 06:07:24;;;;;;;4.32;1.42;;;;;;;-145.48;100.00;64539.38;6045802;29;20052;-90
2022/11/05 06:10:26;;;;;;;4.30;1.45;;;;;;;-145.48;100.00;64539.38;6050127;29;20121;-91
2022/11/05 06:13:29;;;;;;;3.53;1.60;;;;;;;-145.48;100.00;64539.38;6050652;29;20052;-91
2022/11/05 06:16:34;;;;;;;4.95;1.60;;;;;;;-145.48;100.00;64539.38;6065488;29;20212;-91
2022/11/05 06:19:36;;;;;;;7.88;1.98;;;;;;;-145.48;100.00;64539.38;6058502;29;20051;-91
2022/11/05 06:22:38;;;;;;;6.57;1.60;;;;;;;-145.48;100.00;64539.38;6069872;29;20348;-92
2022/11/05 06:25:40;;;;;;;4.80;1.90;;;;;;;-145.48;100.00;64539.38;6069520;29;20274;-91
2022/11/05 06:28:43;;;;;;;3.88;1.63;;;;;;;-145.48;100.00;64539.38;6059238;29;20560;-91
2022/11/05 06:31:45;;;;;;;5.03;1.80;;;;;;;-145.48;100.00;64539.38;6053094;29;20045;-91
2022/11/05 06:34:47;;;;;;;6.30;2.05;;;;;;;-145.48;100.00;64539.38;6043319;29;20045;-90
2022/11/05 06:37:49;;;;;;;6.03;2.15;;;;;;;-145.48;100.00;64539.38;6061843;29;20051;-91
2022/11/05 06:40:51;;;;;;;4.93;1.90;;;;;;;-145.48;100.00;64539.38;6058921;29;20043;-91
2022/11/05 06:43:52;;;;;;;6.70;2.30;;;;;;;-145.48;100.00;64539.38;6054286;29;20576;-91
2022/11/05 06:46:54;;;;;;;5.75;2.50;;;;;;;-145.48;100.00;64539.38;6066440;29;20045;-91
2022/11/05 06:49:56;;;;;;;7.65;2.30;;;;;;;-145.48;100.00;64539.38;6053162;29;20045;-91
2022/11/05 06:53:00;;;;;;;4.70;2.40;;;;;;;-145.48;100.00;64539.38;6060034;29;20049;-90
2022/11/05 06:56:06;;;;;;;7.00;2.60;;;;;;;-145.48;100.00;64539.38;6036490;29;20048;-90
2022/11/05 06:59:08;;;;;;;5.47;2.25;;;;;;;-145.48;100.00;64539.38;6047567;29;20041;-91
2022/11/05 07:02:11;;;;;;;8.00;2.55;;;;;;;-145.48;100.00;64539.38;6035360;29;20473;-91
2022/11/05 07:05:15;;;;;;;7.85;2.83;;;;;;;-145.48;100.00;64539.38;6046608;29;20547;-90
2022/11/05 07:08:17;;;;;;;7.70;2.50;;;;;;;-145.48;100.00;64539.38;6042809;29;20132;-91
2022/11/05 07:11:19;;;;;;;8.15;2.50;;;;;;;-145.48;100.00;64539.38;6059630;29;20056;-91
2022/11/05 07:14:20;;;;;;;5.43;2.55;;;;;;;-145.48;100.00;64539.38;6056518;29;20410;-91
2022/11/05 07:17:22;;;;;;;7.45;3.10;;;;;;;-145.48;100.00;64539.38;6059527;29;20064;-91
2022/11/05 07:20:25;;;;;;;5.45;2.58;;;;;;;-145.48;100.00;64539.38;6051777;29;20049;-90
2022/11/05 07:23:34;;;;;;;5.88;2.15;;;;;;;-145.48;100.00;64539.38;6051027;29;20404;-90
2022/11/05 07:26:36;;;;;;;6.43;2.42;;;;;;;-145.48;100.00;64539.38;6044802;29;20041;-91
2022/11/05 07:29:38;;;;;;;9.05;2.63;;;;;;;-145.48;100.00;64539.38;6057546;29;20029;-91
2022/11/05 07:32:40;;;;;;;6.22;3.00;;;;;;;-145.48;100.00;64539.38;6054786;29;20053;-91
2022/11/05 07:35:43;;;;;;;7.45;2.50;;;;;;;-145.48;100.00;64539.38;6044499;29;20394;-91
2022/11/05 07:38:44;;;;;;;6.90;3.10;;;;;;;-145.48;100.00;64539.38;6053595;29;20052;-91
2022/11/05 07:41:46;;;;;;;7.03;3.42;;;;;;;-145.48;100.00;64539.38;6058360;29;20487;-90
2022/11/05 07:44:48;;;;;;;6.72;3.97;;;;;;;-145.48;100.00;64539.38;6046892;29;20041;-91
2022/11/05 07:48:04;;;;;;;6.63;3.97;;;;;;;-145.48;100.00;64539.38;6061205;29;20033;-91
2022/11/05 07:51:06;;;;;;;6.85;3.67;;;;;;;-145.48;100.00;64539.38;6044283;29;20040;-91
2022/11/05 07:54:08;;;;;;;9.63;4.07;;;;;;;-145.48;100.00;64539.38;6054567;29;20052;-90
2022/11/05 07:57:09;;;;;;;6.82;4.18;;;;;;;-145.48;100.00;64539.38;6065021;29;20570;-91
2022/11/05 08:00:15;;;;;;;6.32;3.83;;;;;;;-145.48;100.00;64539.38;6060601;29;20156;-91
2022/11/05 08:03:17;;;;;;;8.85;4.00;;;;;;;-145.48;100.00;64539.38;6083172;29;20105;-90
2022/11/05 08:06:20;;;;;;;9.15;4.57;;;;;;;-145.48;100.00;64539.38;6047996;29;20136;-90
2022/11/05 08:09:21;;;;;;;6.75;4.07;;;;;;;-145.48;100.00;64539.38;6050960;29;20398;-91
2022/11/05 08:12:23;;;;;;;7.82;4.50;;;;;;;-145.48;100.00;64539.38;6052108;29;20048;-90
2022/11/05 08:15:25;;;;;;;8.50;5.38;;;;;;;-145.48;100.00;64539.38;6046067;29;20523;-91
2022/11/05 08:18:34;;;;;;;9.95;4.50;;;;;;;-145.48;100.00;64539.38;6053039;29;20500;-90
2022/11/05 08:21:36;;;;;;;8.25;4.20;;;;;;;-145.48;100.00;64539.38;6049332;29;20063;-90
2022/11/05 08:24:38;;;;;;;8.98;4.70;;;;;;;-145.48;100.00;64539.38;6044441;29;20086;-90
2022/11/05 08:27:40;;;;;;;10.05;4.45;;;;;;;-145.48;100.00;64539.38;6041454;29;20487;-90
2022/11/05 08:30:41;;;;;;;7.32;4.43;;;;;;;-145.48;100.00;64539.38;6038228;29;20388;-91
2022/11/05 08:33:43;;;;;;;9.02;4.15;;;;;;;-145.48;100.00;64539.38;6031799;29;20076;-90
2022/11/05 08:36:46;;;;;;;8.32;4.55;;;;;;;-145.48;100.00;64539.38;6043696;29;20040;-90
2022/11/05 08:39:47;;;;;;;11.95;4.90;;;;;;;-145.48;100.00;64539.38;6033974;29;20415;-91
2022/11/05 08:42:49;;;;;;;10.38;4.50;;;;;;;-145.48;100.00;64539.38;6050788;29;20706;-90
2022/11/05 08:45:51;;;;;;;6.60;3.25;;;;;;;-145.48;100.00;64539.38;6044031;29;20630;-90
2022/11/05 08:48:53;;;;;;;7.15;3.70;;;;;;;-145.48;100.00;64539.38;6046839;29;20040;-90
2022/11/05 08:51:55;;;;;;;6.57;4.20;;;;;;;-145.48;100.00;64539.38;6047875;29;20181;-90
2022/11/05 08:54:56;;;;;;;6.57;3.72;;;;;;;-145.48;100.00;64539.38;6055190;29;20080;-91
2022/11/05 08:58:09;;;;;;;6.47;3.90;;;;;;;-145.48;100.00;64539.38;6048006;29;20044;-90
2022/11/05 09:01:11;;;;;;;7.78;4.30;;;;;;;-145.48;100.00;64539.38;6049185;29;20048;-90
2022/11/05 09:04:13;;;;;;;9.18;3.95;;;;;;;-145.48;100.00;64539.38;6051487;29;20632;-91
2022/11/05 09:07:15;;;;;;;11.90;4.28;;;;;;;-145.48;100.00;64539.38;6055987;29;20048;-91
2022/11/05 09:10:17;;;;;;;11.40;4.65;;;;;;;-145.48;100.00;64539.38;6054973;29;20037;-90
2022/11/05 09:13:19;;;;;;;7.32;4.07;;;;;;;-145.48;100.00;64539.38;6050950;29;20041;-91
2022/11/05 09:16:24;;;;;;;9.52;4.65;;;;;;;-145.48;100.00;64539.38;6051300;29;20045;-90
2022/11/05 09:19:26;;;;;;;7.38;3.67;;;;;;;-145.48;100.00;64539.38;6062348;29;20132;-90
2022/11/05 09:22:28;;;;;;;8.27;4.30;;;;;;;-145.48;100.00;64539.38;6045854;29;20068;-90
2022/11/05 09:25:31;;;;;;;8.18;4.18;;;;;;;-145.48;100.00;64539.38;6057615;29;20072;-90
2022/11/05 09:28:33;;;;;;;7.97;4.15;;;;;;;-145.48;100.00;64539.38;6043539;29;20067;-90
2022/11/05 09:31:34;;;;;;;8.60;4.80;;;;;;;-145.48;100.00;64539.38;6046988;29;20036;-90
2022/11/05 09:34:36;;;;;;;8.55;4.45;;;;;;;-145.48;100.00;64539.38;6045523;29;20049;-90
2022/11/05 09:37:38;;;;;;;7.68;4.00;;;;;;;-145.48;100.00;64539.38;6055652;29;20045;-90
2022/11/05 09:41:20;;;;;;;6.38;3.97;;;;;;;-145.48;100.00;64539.38;6047853;29;20060;-90
2022/11/05 09:44:51;;;;;;;8.05;3.90;;;;;;;-145.48;100.00;64539.38;6032205;29;20201;-90
2022/11/05 09:47:57;;;;;;;;;;;;;;;-145.48;100.00;64539.38;6037785;29;20061;-90
2022/11/05 09:50:58;;;;;;;9.07;4.35;;;;;;;-145.48;100.00;64539.38;6020251;29;20030;-90
2022/11/05 09:54:01;;;;;;;9.20;4.68;;;;;;;-145.48;100.00;64539.38;6022046;29;20202;-91
2022/11/05 09:57:10;;;;;;;10.20;4.60;;;;;;;-145.48;100.00;64539.38;6019676;29;20563;-90
2022/11/05 10:00:15;;;;;;;12.32;5.68;;;;;;;-145.48;100.00;64539.38;6018724;29;20466;-90
2022/11/05 10:03:26;;;;;;;9.40;5.18;;;;;;;-145.48;100.00;64539.38;6036374;29;20515;-90
2022/11/05 10:06:28;;;;;;;11.20;5.38;;;;;;;-145.48;100.00;64539.38;6032647;29;20057;-90
2022/11/05 10:09:46;;;;;;;11.77;6.38;;;;;;;-145.48;100.00;64539.38;6021533;29;20127;-90
2022/11/05 10:12:59;;;;;;;11.80;6.00;;;;;;;-145.48;100.00;64539.38;6037466;29;20051;-90
2022/11/05 10:16:11;;;;;;;11.48;5.50;;;;;;;-145.48;100.00;64539.38;6011053;29;20090;-90
2022/11/05 10:19:23;;;;;;;10.40;5.63;;;;;;;-145.48;100.00;64539.38;6028448;29;20049;-90
2022/11/05 10:22:25;;;;;;;11.98;5.90;;;;;;;-145.48;100.00;64539.38;6055803;29;20056;-90
2022/11/05 10:25:32;;;;;;;9.68;5.63;;;;;;;-145.48;100.00;64539.38;6045819;29;20042;-90
2022/11/05 10:28:34;;;;;;;10.98;5.70;;;;;;;-145.48;100.00;64539.38;6025725;29;20420;-90
2022/11/05 10:31:36;;;;;;;10.07;5.93;;;;;;;-145.48;100.00;64539.38;6052522;29;20044;-89
2022/11/05 10:34:38;;;;;;;12.45;5.88;;;;;;;-145.48;100.00;64539.38;6056256;29;20053;-90
2022/11/05 10:37:40;;;;;;;13.13;6.50;;;;;;;-145.48;100.00;64539.38;6053999;29;20052;-90
2022/11/05 10:40:45;;;;;;;13.05;6.40;;;;;;;-145.48;100.00;64539.38;6044786;29;20052;-90
2022/11/05 10:43:56;;;;;;;10.50;5.50;;;;;;;-145.48;100.00;64539.38;6055894;29;20052;-91
2022/11/05 10:47:22;;;;;;;11.60;5.82;;;;;;;-145.48;100.00;64539.38;6046351;29;20042;-90
2022/11/05 10:50:28;;;;;;;10.65;5.30;;;;;;;-145.48;100.00;64539.38;6055699;29;20052;-90
2022/11/05 10:53:33;;;;;;;11.65;6.28;;;;;;;-145.48;100.00;64539.38;6063637;29;20052;-91
2022/11/05 10:56:38;;;;;;;14.63;6.72;;;;;;;-145.48;100.00;64539.38;6070997;29;20059;-90
2022/11/05 10:59:40;;;;;;;12.50;6.45;;;;;;;-145.48;100.00;64539.38;6054765;29;20457;-91
2022/11/05 11:02:47;;;;;;;12.13;6.40;;;;;;;-145.48;100.00;64539.38;6051340;29;20048;-90
2022/11/05 11:05:56;;;;;;;11.38;6.50;;;;;;;-145.48;100.00;64539.38;6066598;29;20441;-91
2022/11/05 11:09:02;;;;;;;13.82;6.63;;;;;;;-145.48;100.00;64539.38;6050344;29;20049;-90
2022/11/05 11:12:12;;;;;;;12.63;6.32;;;;;;;-145.48;100.00;64539.38;6045483;29;20372;-91
2022/11/05 11:15:26;;;;;;;13.00;6.63;;;;;;;-145.48;100.00;64539.38;6044180;29;20136;-91
2022/11/05 11:18:35;;;;;;;14.02;6.25;;;;;;;-145.48;100.00;64539.38;6041904;29;20132;-91
2022/11/05 11:21:41;;;;;;;17.00;6.45;;;;;;;-145.48;100.00;64539.38;6042110;29;20059;-91
2022/11/05 11:24:48;;;;;;;14.85;6.95;;;;;;;-145.48;100.00;64539.38;6046372;29;20123;-91
2022/11/05 11:27:51;;;;;;;14.45;6.07;;;;;;;-145.48;100.00;64539.38;6058345;29;20424;-91
2022/11/05 11:31:13;;;;;;;14.02;6.03;;;;;;;-145.48;100.00;64539.38;6058099;29;20048;-91
2022/11/05 11:34:38;;;;;;;13.90;6.68;;;;;;;-145.48;100.00;64539.38;6053601;29;20063;-92
2022/11/05 11:37:40;;;;;;;18.15;6.28;;;;;;;-145.48;100.00;64539.38;6038123;29;20067;-91
2022/11/05 11:40:44;;;;;;;13.60;6.30;;;;;;;-145.48;100.00;64539.38;6044641;29;20049;-92
2022/11/05 11:43:46;;;;;;;10.55;5.60;;;;;;;-145.48;100.00;64539.38;6034500;29;20047;-92
2022/11/05 11:46:51;;;;;;;13.63;5.90;;;;;;;-145.48;100.00;64539.38;6045886;29;20037;-92
2022/11/05 11:49:55;;;;;;;12.80;6.28;;;;;;;-145.48;100.00;64539.38;6055181;29;20728;-92
2022/11/05 11:53:16;;;;;;;11.70;5.95;;;;;;;-145.48;100.00;64539.38;6052273;29;20559;-92
2022/11/05 11:56:20;;;;;;;11.80;5.82;;;;;;;-145.48;100.00;64539.38;6053108;29;20576;-91
2022/11/05 11:59:25;;;;;;;12.70;6.38;;;;;;;-145.48;100.00;64539.38;6041557;29;20056;-91
2022/11/05 12:03:06;;;;;;;13.02;6.65;;;;;;;-145.48;100.00;64539.38;6051085;29;20049;-92
2022/11/05 12:06:30;;;;;;;10.65;6.55;;;;;;;-145.48;100.00;64539.38;6044404;29;20044;-91
2022/11/05 12:10:00;;;;;;;12.68;6.47;;;;;;;-145.48;100.00;64539.38;6051944;29;20074;-92
2022/11/05 12:13:23;;;;;;;12.73;7.13;;;;;;;-145.48;100.00;64539.38;6046680;29;20495;-91
2022/11/05 12:16:35;;;;;;;12.55;6.75;;;;;;;-145.48;100.00;64539.38;6041744;29;20051;-91
2022/11/05 12:19:59;;;;;;;12.68;7.93;;;;;;;-145.48;100.00;64539.38;6047410;29;20211;-91
2022/11/05 12:23:45;;;;;;;15.52;7.28;;;;;;;-145.48;100.00;64539.38;6060585;29;20064;-91
2022/11/05 12:27:01;;;;;;;12.38;7.05;;;;;;;-145.48;100.00;64539.38;6024630;29;20335;-91
2022/11/05 12:30:22;;;;;;;12.73;7.78;;;;;;;-145.48;100.00;64539.38;6018189;29;20058;-91
2022/11/05 12:33:35;;;;;;;11.13;7.32;;;;;;;-145.48;100.00;64539.38;6016574;29;20050;-92
2022/11/05 12:36:51;;;;;;;11.35;7.60;;;;;;;-145.48;100.00;64539.38;6023220;29;20053;-92
2022/11/05 12:40:11;;;;;;;11.55;7.05;;;;;;;-145.48;100.00;64539.38;6030170;29;20526;-93
2022/11/05 12:43:33;;;;;;;12.07;7.10;;;;;;;-145.48;100.00;64539.38;6018066;29;20544;-92
2022/11/05 12:47:12;;;;;;;11.70;6.55;;;;;;;-145.48;100.00;64539.38;6012567;29;20045;-92
2022/11/05 12:50:42;;;;;;;12.55;7.72;;;;;;;-145.48;100.00;64539.38;6014409;29;20114;-92
2022/11/05 12:54:19;;;;;;;11.25;5.88;;;;;;;-145.48;100.00;64539.38;6005206;29;20065;-92
2022/11/05 12:57:22;;;;;;;10.80;5.63;;;;;;;-145.48;100.00;64539.38;5948380;29;20243;-91
2022/11/05 13:00:29;;;;;;;9.32;6.40;;;;;;;-145.48;100.00;64539.38;5963780;29;20043;-92
2022/11/05 13:03:46;;;;;;;8.80;6.20;;;;;;;-145.48;100.00;64539.38;5931867;29;20059;-92
2022/11/05 13:06:54;;;;;;;9.07;6.20;;;;;;;-145.48;100.00;64539.38;5955609;29;20046;-92
2022/11/05 13:10:16;;;;;;;10.55;7.03;;;;;;;-145.48;100.00;64539.38;5954260;29;20441;-93
2022/11/05 13:13:36;;;;;;;12.73;6.38;;;;;;;-145.48;100.00;64539.38;5939281;29;20122;-92
2022/11/05 13:16:43;;;;;;;7.32;5.50;;;;;;;-145.48;100.00;64539.38;5953143;29;20145;-93
2022/11/05 13:20:02;;;;;;;9.30;5.18;;;;;;;-145.48;100.00;64539.38;5953849;29;20476;-93
2022/11/05 13:23:30;;;;;;;8.90;6.10;;;;;;;-145.48;100.00;64539.38;5952789;29;20138;-93
2022/11/05 13:26:45;;;;;;;7.38;5.40;;;;;;;-145.48;100.00;64539.38;5952871;29;20051;-93
2022/11/05 13:29:51;;;;;;;11.18;5.70;;;;;;;-145.48;100.00;64539.38;5966352;29;20050;-93
2022/11/05 13:33:02;;;;;;;9.25;5.20;;;;;;;-145.48;100.00;64539.38;5968484;29;20046;-93
2022/11/05 13:39:54;;;;;;;9.05;5.50;;;;;;;-145.48;100.00;64539.38;6044558;29;20052;-93
2022/11/05 13:43:08;;;;;;;9.90;6.05;;;;;;;-145.48;100.00;64539.38;6050138;29;20059;-93
2022/11/05 13:46:22;;;;;;;10.35;5.28;;;;;;;-145.48;100.00;64539.38;6047402;29;20147;-93
2022/11/05 13:49:52;;;;;;;7.72;4.68;;;;;;;-145.48;100.00;64539.38;6063765;29;20407;-93
2022/11/05 13:53:22;;;;;;;9.82;4.70;;;;;;;-145.48;100.00;64539.38;6062010;29;20044;-93
2022/11/05 13:56:42;;;;;;;5.88;3.90;;;;;;;-145.48;100.00;64539.38;6058070;29;20056;-93
2022/11/05 14:00:16;;;;;;;7.32;4.57;;;;;;;-145.48;100.00;64539.38;6054991;29;20048;-92
2022/11/05 14:03:20;;;;;;;4.85;3.45;;;;;;;-145.48;100.00;64539.38;6061627;29;20514;-93
2022/11/05 14:06:35;;;;;;;8.13;3.72;;;;;;;-145.48;100.00;64539.38;6053245;29;20048;-93
2022/11/05 14:09:39;;;;;;;6.88;3.95;;;;;;;-145.48;100.00;64539.38;6052058;29;21144;-94
2022/11/05 14:12:47;;;;;;;7.75;3.40;;;;;;;-145.48;100.00;64539.38;6044095;29;20040;-93
2022/11/05 14:16:07;;;;;;;8.30;3.67;;;;;;;-145.48;100.00;64539.38;6048740;29;20829;-93
2022/11/05 14:19:33;;;;;;;6.95;3.50;;;;;;;-145.48;100.00;64539.38;6042940;29;20404;-93
2022/11/05 14:22:40;;;;;;;7.63;3.90;;;;;;;-145.48;100.00;64539.38;6042746;29;20084;-93
2022/11/05 14:25:42;;;;;;;6.60;4.22;;;;;;;-145.48;100.00;64539.38;6058396;29;20042;-94
2022/11/05 14:28:50;;;;;;;6.00;3.88;;;;;;;-145.48;100.00;64539.38;6043009;29;20050;-92
2022/11/05 14:31:51;;;;;;;4.60;3.63;;;;;;;-145.48;100.00;64539.38;6047567;29;20128;-94
2022/11/05 14:35:18;;;;;;;6.38;3.63;;;;;;;-145.48;100.00;64539.38;6043335;29;20046;-94
2022/11/05 14:38:23;;;;;;;5.32;3.40;;;;;;;-145.48;100.00;64539.38;6047200;29;20085;-94
2022/11/05 14:41:26;;;;;;;5.28;3.65;;;;;;;-145.48;100.00;64539.38;6046948;29;20045;-93
2022/11/05 14:44:31;;;;;;;7.38;4.00;;;;;;;-145.48;100.00;64539.38;6046328;29;20071;-93
2022/11/05 14:47:39;;;;;;;10.13;4.13;;;;;;;-145.48;100.00;64539.38;6057259;29;20049;-93
2022/11/05 14:50:41;;;;;;;8.55;4.30;;;;;;;-145.48;100.00;64539.38;6057066;29;20044;-93
2022/11/05 14:53:43;;;;;;;8.52;4.38;;;;;;;-145.48;100.00;64539.38;6057744;29;20247;-92